sensor_id;sensor_type;location;lat;lon;timestamp;P1;durP1;ratioP1;P2;durP2;ratioP2
8133;SDS011;7113;53.650;9.916;2022-08-21T00:01:25;6.00;;;2.90;;
8133;SDS011;7113;53.650;9.916;2022-08-21T00:03:29;4.43;;;2.63;;
8133;SDS011;7113;53.650;9.916;2022-08-21T00:05:34;3.80;;;3.37;;
8133;SDS011;7113;53.650;9.916;2022-08-21T00:07:38;6.63;;;3.33;;
8133;SDS011;7113;53.650;9.916;2022-08-21T00:09:41;3.07;;;2.73;;
8133;SDS011;7113;53.650;9.916;2022-08-21T00:11:44;6.23;;;3.30;;
8133;SDS011;7113;53.650;9.916;2022-08-21T00:13:47;4.23;;;2.90;;
8133;SDS011;7113;53.650;9.916;2022-08-21T00:15:51;6.80;;;3.53;;
8133;SDS011;7113;53.650;9.916;2022-08-21T00:17:57;5.00;;;2.50;;
8133;SDS011;7113;53.650;9.916;2022-08-21T00:20:00;7.73;;;3.77;;
8133;SDS011;7113;53.650;9.916;2022-08-21T00:22:04;4.67;;;2.93;;
8133;SDS011;7113;53.650;9.916;2022-08-21T00:24:07;6.03;;;4.20;;
8133;SDS011;7113;53.650;9.916;2022-08-21T00:26:10;4.90;;;3.40;;
8133;SDS011;7113;53.650;9.916;2022-08-21T00:28:13;15.73;;;4.10;;
8133;SDS011;7113;53.650;9.916;2022-08-21T00:30:17;5.63;;;4.00;;
8133;SDS011;7113;53.650;9.916;2022-08-21T00:32:21;7.00;;;3.93;;
8133;SDS011;7113;53.650;9.916;2022-08-21T00:34:27;8.07;;;3.80;;
8133;SDS011;7113;53.650;9.916;2022-08-21T00:36:30;6.57;;;3.80;;
8133;SDS011;7113;53.650;9.916;2022-08-21T00:38:33;6.23;;;2.77;;
8133;SDS011;7113;53.650;9.916;2022-08-21T00:40:38;3.40;;;3.10;;
8133;SDS011;7113;53.650;9.916;2022-08-21T00:42:41;9.13;;;4.10;;
8133;SDS011;7113;53.650;9.916;2022-08-21T00:44:45;12.23;;;3.20;;
8133;SDS011;7113;53.650;9.916;2022-08-21T00:46:48;13.13;;;3.20;;
8133;SDS011;7113;53.650;9.916;2022-08-21T00:48:52;10.30;;;3.00;;
8133;SDS011;7113;53.650;9.916;2022-08-21T00:51:00;8.07;;;3.80;;
8133;SDS011;7113;53.650;9.916;2022-08-21T00:53:04;6.47;;;3.27;;
8133;SDS011;7113;53.650;9.916;2022-08-21T00:55:08;4.60;;;2.97;;
8133;SDS011;7113;53.650;9.916;2022-08-21T00:57:14;4.33;;;2.23;;
8133;SDS011;7113;53.650;9.916;2022-08-21T00:59:18;9.43;;;4.07;;
8133;SDS011;7113;53.650;9.916;2022-08-21T01:01:21;7.37;;;3.57;;
8133;SDS011;7113;53.650;9.916;2022-08-21T01:03:25;1.93;;;1.80;;
8133;SDS011;7113;53.650;9.916;2022-08-21T01:05:28;2.87;;;2.20;;
8133;SDS011;7113;53.650;9.916;2022-08-21T01:07:33;6.13;;;2.33;;
8133;SDS011;7113;53.650;9.916;2022-08-21T01:09:37;3.17;;;2.70;;
8133;SDS011;7113;53.650;9.916;2022-08-21T01:11:40;2.30;;;2.10;;
8133;SDS011;7113;53.650;9.916;2022-08-21T01:13:44;4.20;;;1.87;;
8133;SDS011;7113;53.650;9.916;2022-08-21T01:15:48;2.13;;;2.03;;
8133;SDS011;7113;53.650;9.916;2022-08-21T01:17:52;2.30;;;2.10;;
8133;SDS011;7113;53.650;9.916;2022-08-21T01:19:57;2.93;;;1.67;;
8133;SDS011;7113;53.650;9.916;2022-08-21T01:22:02;8.67;;;2.40;;
8133;SDS011;7113;53.650;9.916;2022-08-21T01:24:06;2.90;;;1.63;;
8133;SDS011;7113;53.650;9.916;2022-08-21T01:26:09;1.77;;;1.67;;
8133;SDS011;7113;53.650;9.916;2022-08-21T01:28:13;5.67;;;1.80;;
8133;SDS011;7113;53.650;9.916;2022-08-21T01:30:17;4.07;;;1.80;;
8133;SDS011;7113;53.650;9.916;2022-08-21T01:32:22;10.53;;;1.50;;
8133;SDS011;7113;53.650;9.916;2022-08-21T01:34:26;1.63;;;1.53;;
8133;SDS011;7113;53.650;9.916;2022-08-21T01:36:29;4.70;;;2.13;;
8133;SDS011;7113;53.650;9.916;2022-08-21T01:38:35;2.27;;;2.07;;
8133;SDS011;7113;53.650;9.916;2022-08-21T01:40:38;2.30;;;1.73;;
8133;SDS011;7113;53.650;9.916;2022-08-21T01:42:41;8.30;;;1.60;;
8133;SDS011;7113;53.650;9.916;2022-08-21T01:44:44;2.17;;;1.97;;
8133;SDS011;7113;53.650;9.916;2022-08-21T01:46:47;3.90;;;2.40;;
8133;SDS011;7113;53.650;9.916;2022-08-21T01:48:50;3.90;;;2.10;;
8133;SDS011;7113;53.650;9.916;2022-08-21T01:50:53;4.40;;;2.17;;
8133;SDS011;7113;53.650;9.916;2022-08-21T01:52:56;2.33;;;1.70;;
8133;SDS011;7113;53.650;9.916;2022-08-21T01:55:02;4.47;;;2.30;;
8133;SDS011;7113;53.650;9.916;2022-08-21T01:57:06;2.47;;;2.27;;
8133;SDS011;7113;53.650;9.916;2022-08-21T01:59:10;3.93;;;2.13;;
8133;SDS011;7113;53.650;9.916;2022-08-21T02:01:13;4.43;;;2.87;;
8133;SDS011;7113;53.650;9.916;2022-08-21T02:03:16;2.57;;;2.37;;
8133;SDS011;7113;53.650;9.916;2022-08-21T02:05:20;9.80;;;2.70;;
8133;SDS011;7113;53.650;9.916;2022-08-21T02:07:23;3.67;;;2.50;;
8133;SDS011;7113;53.650;9.916;2022-08-21T02:09:26;2.83;;;2.63;;
8133;SDS011;7113;53.650;9.916;2022-08-21T02:11:32;2.27;;;2.10;;
8133;SDS011;7113;53.650;9.916;2022-08-21T02:13:35;3.63;;;2.17;;
8133;SDS011;7113;53.650;9.916;2022-08-21T02:15:38;2.50;;;1.50;;
8133;SDS011;7113;53.650;9.916;2022-08-21T02:17:42;2.73;;;2.10;;
8133;SDS011;7113;53.650;9.916;2022-08-21T02:19:46;6.77;;;3.53;;
8133;SDS011;7113;53.650;9.916;2022-08-21T02:21:49;2.00;;;1.90;;
8133;SDS011;7113;53.650;9.916;2022-08-21T02:23:52;2.00;;;1.90;;
8133;SDS011;7113;53.650;9.916;2022-08-21T02:25:56;2.20;;;1.63;;
8133;SDS011;7113;53.650;9.916;2022-08-21T02:28:02;3.10;;;2.80;;
8133;SDS011;7113;53.650;9.916;2022-08-21T02:30:06;2.33;;;2.13;;
8133;SDS011;7113;53.650;9.916;2022-08-21T02:32:09;2.07;;;1.87;;
8133;SDS011;7113;53.650;9.916;2022-08-21T02:34:12;2.90;;;2.00;;
8133;SDS011;7113;53.650;9.916;2022-08-21T02:36:15;5.03;;;2.03;;
8133;SDS011;7113;53.650;9.916;2022-08-21T02:38:22;6.30;;;2.30;;
8133;SDS011;7113;53.650;9.916;2022-08-21T02:40:27;2.63;;;2.43;;
8133;SDS011;7113;53.650;9.916;2022-08-21T02:42:30;3.73;;;2.10;;
8133;SDS011;7113;53.650;9.916;2022-08-21T02:44:36;4.37;;;2.17;;
8133;SDS011;7113;53.650;9.916;2022-08-21T02:46:39;4.30;;;2.13;;
8133;SDS011;7113;53.650;9.916;2022-08-21T02:48:42;6.23;;;2.73;;
8133;SDS011;7113;53.650;9.916;2022-08-21T02:50:46;2.33;;;2.13;;
8133;SDS011;7113;53.650;9.916;2022-08-21T02:52:50;4.20;;;2.97;;
8133;SDS011;7113;53.650;9.916;2022-08-21T02:54:53;1.50;;;1.40;;
8133;SDS011;7113;53.650;9.916;2022-08-21T02:56:56;4.97;;;2.13;;
8133;SDS011;7113;53.650;9.916;2022-08-21T02:58:59;3.50;;;1.50;;
8133;SDS011;7113;53.650;9.916;2022-08-21T03:01:05;2.67;;;1.77;;
8133;SDS011;7113;53.650;9.916;2022-08-21T03:03:09;1.57;;;1.57;;
8133;SDS011;7113;53.650;9.916;2022-08-21T03:05:15;2.17;;;2.07;;
8133;SDS011;7113;53.650;9.916;2022-08-21T03:07:20;2.07;;;1.97;;
8133;SDS011;7113;53.650;9.916;2022-08-21T03:09:23;6.00;;;2.23;;
8133;SDS011;7113;53.650;9.916;2022-08-21T03:11:26;10.30;;;1.80;;
8133;SDS011;7113;53.650;9.916;2022-08-21T03:13:30;8.00;;;1.83;;
8133;SDS011;7113;53.650;9.916;2022-08-21T03:15:33;7.17;;;1.60;;
8133;SDS011;7113;53.650;9.916;2022-08-21T03:17:39;1.87;;;1.77;;
8133;SDS011;7113;53.650;9.916;2022-08-21T03:19:42;1.67;;;1.57;;
8133;SDS011;7113;53.650;9.916;2022-08-21T03:21:45;1.77;;;1.17;;
8133;SDS011;7113;53.650;9.916;2022-08-21T03:23:48;3.83;;;1.47;;
8133;SDS011;7113;53.650;9.916;2022-08-21T03:25:51;4.47;;;1.53;;
8133;SDS011;7113;53.650;9.916;2022-08-21T03:27:57;8.33;;;1.97;;
8133;SDS011;7113;53.650;9.916;2022-08-21T03:30:00;2.27;;;2.10;;
8133;SDS011;7113;53.650;9.916;2022-08-21T03:32:04;3.07;;;1.70;;
8133;SDS011;7113;53.650;9.916;2022-08-21T03:34:11;1.70;;;1.60;;
8133;SDS011;7113;53.650;9.916;2022-08-21T03:36:15;1.67;;;1.50;;
8133;SDS011;7113;53.650;9.916;2022-08-21T03:38:18;3.07;;;1.70;;
8133;SDS011;7113;53.650;9.916;2022-08-21T03:40:22;2.13;;;1.90;;
8133;SDS011;7113;53.650;9.916;2022-08-21T03:42:25;4.30;;;1.43;;
8133;SDS011;7113;53.650;9.916;2022-08-21T03:44:28;2.20;;;1.80;;
8133;SDS011;7113;53.650;9.916;2022-08-21T03:46:31;1.90;;;1.50;;
8133;SDS011;7113;53.650;9.916;2022-08-21T03:48:35;4.20;;;1.80;;
8133;SDS011;7113;53.650;9.916;2022-08-21T03:50:42;1.97;;;1.73;;
8133;SDS011;7113;53.650;9.916;2022-08-21T03:52:46;4.60;;;2.10;;
8133;SDS011;7113;53.650;9.916;2022-08-21T03:54:50;1.97;;;1.87;;
8133;SDS011;7113;53.650;9.916;2022-08-21T03:56:53;1.90;;;1.80;;
8133;SDS011;7113;53.650;9.916;2022-08-21T03:58:56;2.10;;;2.00;;
8133;SDS011;7113;53.650;9.916;2022-08-21T04:00:59;2.33;;;1.77;;
8133;SDS011;7113;53.650;9.916;2022-08-21T04:03:03;1.80;;;1.70;;
8133;SDS011;7113;53.650;9.916;2022-08-21T04:05:07;2.07;;;1.97;;
8133;SDS011;7113;53.650;9.916;2022-08-21T04:07:13;1.93;;;1.30;;
8133;SDS011;7113;53.650;9.916;2022-08-21T04:09:16;1.40;;;1.40;;
8133;SDS011;7113;53.650;9.916;2022-08-21T04:11:19;4.07;;;1.73;;
8133;SDS011;7113;53.650;9.916;2022-08-21T04:13:22;1.40;;;1.40;;
8133;SDS011;7113;53.650;9.916;2022-08-21T04:15:26;4.33;;;1.67;;
8133;SDS011;7113;53.650;9.916;2022-08-21T04:17:29;2.03;;;1.87;;
8133;SDS011;7113;53.650;9.916;2022-08-21T04:19:33;4.67;;;2.37;;
8133;SDS011;7113;53.650;9.916;2022-08-21T04:21:36;10.07;;;1.90;;
8133;SDS011;7113;53.650;9.916;2022-08-21T04:23:42;2.20;;;2.10;;
8133;SDS011;7113;53.650;9.916;2022-08-21T04:25:45;1.70;;;1.70;;
8133;SDS011;7113;53.650;9.916;2022-08-21T04:27:49;2.73;;;2.10;;
8133;SDS011;7113;53.650;9.916;2022-08-21T04:29:52;3.37;;;1.80;;
8133;SDS011;7113;53.650;9.916;2022-08-21T04:31:55;2.93;;;2.50;;
8133;SDS011;7113;53.650;9.916;2022-08-21T04:33:58;1.83;;;1.73;;
8133;SDS011;7113;53.650;9.916;2022-08-21T04:36:02;2.10;;;2.00;;
8133;SDS011;7113;53.650;9.916;2022-08-21T04:38:05;3.07;;;2.50;;
8133;SDS011;7113;53.650;9.916;2022-08-21T04:40:11;2.00;;;1.77;;
8133;SDS011;7113;53.650;9.916;2022-08-21T04:42:15;1.73;;;1.63;;
8133;SDS011;7113;53.650;9.916;2022-08-21T04:44:18;1.97;;;1.87;;
8133;SDS011;7113;53.650;9.916;2022-08-21T04:46:21;4.00;;;1.77;;
8133;SDS011;7113;53.650;9.916;2022-08-21T04:48:24;2.30;;;2.10;;
8133;SDS011;7113;53.650;9.916;2022-08-21T04:50:28;6.23;;;1.70;;
8133;SDS011;7113;53.650;9.916;2022-08-21T04:52:32;2.37;;;2.27;;
8133;SDS011;7113;53.650;9.916;2022-08-21T04:54:35;6.23;;;2.53;;
8133;SDS011;7113;53.650;9.916;2022-08-21T04:56:42;2.60;;;2.40;;
8133;SDS011;7113;53.650;9.916;2022-08-21T04:58:47;2.07;;;1.90;;
8133;SDS011;7113;53.650;9.916;2022-08-21T05:00:51;1.97;;;1.80;;
8133;SDS011;7113;53.650;9.916;2022-08-21T05:02:54;1.40;;;1.30;;
8133;SDS011;7113;53.650;9.916;2022-08-21T05:04:59;4.30;;;1.67;;
8133;SDS011;7113;53.650;9.916;2022-08-21T05:07:04;3.80;;;1.73;;
8133;SDS011;7113;53.650;9.916;2022-08-21T05:09:08;1.87;;;1.77;;
8133;SDS011;7113;53.650;9.916;2022-08-21T05:11:12;3.63;;;2.30;;
8133;SDS011;7113;53.650;9.916;2022-08-21T05:13:18;4.57;;;2.70;;
8133;SDS011;7113;53.650;9.916;2022-08-21T05:15:21;2.07;;;1.97;;
8133;SDS011;7113;53.650;9.916;2022-08-21T05:17:24;11.53;;;2.50;;
8133;SDS011;7113;53.650;9.916;2022-08-21T05:19:27;4.10;;;3.20;;
8133;SDS011;7113;53.650;9.916;2022-08-21T05:21:30;3.47;;;2.80;;
8133;SDS011;7113;53.650;9.916;2022-08-21T05:23:33;2.63;;;2.23;;
8133;SDS011;7113;53.650;9.916;2022-08-21T05:25:36;2.57;;;2.37;;
8133;SDS011;7113;53.650;9.916;2022-08-21T05:27:39;4.43;;;2.80;;
8133;SDS011;7113;53.650;9.916;2022-08-21T05:29:45;5.53;;;2.47;;
8133;SDS011;7113;53.650;9.916;2022-08-21T05:31:48;12.60;;;2.63;;
8133;SDS011;7113;53.650;9.916;2022-08-21T05:33:51;8.20;;;2.77;;
8133;SDS011;7113;53.650;9.916;2022-08-21T05:35:54;3.97;;;2.47;;
8133;SDS011;7113;53.650;9.916;2022-08-21T05:37:59;3.13;;;2.50;;
8133;SDS011;7113;53.650;9.916;2022-08-21T05:40:03;3.53;;;3.10;;
8133;SDS011;7113;53.650;9.916;2022-08-21T05:42:06;15.10;;;4.90;;
8133;SDS011;7113;53.650;9.916;2022-08-21T05:44:11;9.10;;;3.00;;
8133;SDS011;7113;53.650;9.916;2022-08-21T05:46:18;15.57;;;3.53;;
8133;SDS011;7113;53.650;9.916;2022-08-21T05:48:31;4.30;;;3.43;;
8133;SDS011;7113;53.650;9.916;2022-08-21T05:50:36;5.23;;;3.70;;
8133;SDS011;7113;53.650;9.916;2022-08-21T05:52:40;2.97;;;2.60;;
8133;SDS011;7113;53.650;9.916;2022-08-21T05:54:43;4.20;;;2.70;;
8133;SDS011;7113;53.650;9.916;2022-08-21T05:56:46;10.50;;;3.13;;
8133;SDS011;7113;53.650;9.916;2022-08-21T05:58:49;3.73;;;3.30;;
8133;SDS011;7113;53.650;9.916;2022-08-21T06:00:52;12.13;;;3.80;;
8133;SDS011;7113;53.650;9.916;2022-08-21T06:02:58;5.37;;;3.17;;
8133;SDS011;7113;53.650;9.916;2022-08-21T06:05:01;7.77;;;2.97;;
8133;SDS011;7113;53.650;9.916;2022-08-21T06:07:04;3.53;;;2.50;;
8133;SDS011;7113;53.650;9.916;2022-08-21T06:09:08;5.87;;;3.40;;
8133;SDS011;7113;53.650;9.916;2022-08-21T06:11:11;3.07;;;2.47;;
8133;SDS011;7113;53.650;9.916;2022-08-21T06:13:15;3.40;;;2.97;;
8133;SDS011;7113;53.650;9.916;2022-08-21T06:15:21;4.83;;;3.37;;
8133;SDS011;7113;53.650;9.916;2022-08-21T06:17:24;11.60;;;3.90;;
8133;SDS011;7113;53.650;9.916;2022-08-21T06:19:30;3.90;;;3.00;;
8133;SDS011;7113;53.650;9.916;2022-08-21T06:21:33;7.37;;;2.93;;
8133;SDS011;7113;53.650;9.916;2022-08-21T06:23:36;5.17;;;2.67;;
8133;SDS011;7113;53.650;9.916;2022-08-21T06:25:39;2.47;;;2.10;;
8133;SDS011;7113;53.650;9.916;2022-08-21T06:27:42;3.70;;;2.50;;
8133;SDS011;7113;53.650;9.916;2022-08-21T06:29:46;3.80;;;3.00;;
8133;SDS011;7113;53.650;9.916;2022-08-21T06:31:49;7.20;;;2.43;;
8133;SDS011;7113;53.650;9.916;2022-08-21T06:33:53;3.77;;;2.47;;
8133;SDS011;7113;53.650;9.916;2022-08-21T06:35:58;3.97;;;2.33;;
8133;SDS011;7113;53.650;9.916;2022-08-21T06:38:02;15.17;;;3.50;;
8133;SDS011;7113;53.650;9.916;2022-08-21T06:40:06;3.20;;;2.17;;
8133;SDS011;7113;53.650;9.916;2022-08-21T06:42:12;10.33;;;2.03;;
8133;SDS011;7113;53.650;9.916;2022-08-21T06:44:16;4.57;;;2.13;;
8133;SDS011;7113;53.650;9.916;2022-08-21T06:46:19;11.43;;;1.47;;
8133;SDS011;7113;53.650;9.916;2022-08-21T06:48:22;2.27;;;1.57;;
8133;SDS011;7113;53.650;9.916;2022-08-21T06:50:25;1.80;;;1.70;;
8133;SDS011;7113;53.650;9.916;2022-08-21T06:52:31;1.00;;;1.00;;
8133;SDS011;7113;53.650;9.916;2022-08-21T06:54:34;2.90;;;1.60;;
8133;SDS011;7113;53.650;9.916;2022-08-21T06:56:37;5.03;;;1.57;;
8133;SDS011;7113;53.650;9.916;2022-08-21T06:58:40;2.40;;;1.47;;
8133;SDS011;7113;53.650;9.916;2022-08-21T07:00:45;5.23;;;1.23;;
8133;SDS011;7113;53.650;9.916;2022-08-21T07:02:48;1.47;;;1.03;;
8133;SDS011;7113;53.650;9.916;2022-08-21T07:04:51;2.30;;;1.00;;
8133;SDS011;7113;53.650;9.916;2022-08-21T07:06:54;2.37;;;0.90;;
8133;SDS011;7113;53.650;9.916;2022-08-21T07:09:00;2.07;;;1.30;;
8133;SDS011;7113;53.650;9.916;2022-08-21T07:11:06;0.90;;;0.70;;
8133;SDS011;7113;53.650;9.916;2022-08-21T07:13:10;1.47;;;0.97;;
8133;SDS011;7113;53.650;9.916;2022-08-21T07:15:13;1.23;;;0.90;;
8133;SDS011;7113;53.650;9.916;2022-08-21T07:17:16;4.43;;;1.20;;
8133;SDS011;7113;53.650;9.916;2022-08-21T07:19:19;1.60;;;1.33;;
8133;SDS011;7113;53.650;9.916;2022-08-21T07:21:23;1.30;;;1.13;;
8133;SDS011;7113;53.650;9.916;2022-08-21T07:23:27;1.33;;;1.00;;
8133;SDS011;7113;53.650;9.916;2022-08-21T07:25:33;1.70;;;1.10;;
8133;SDS011;7113;53.650;9.916;2022-08-21T07:27:36;1.93;;;0.80;;
8133;SDS011;7113;53.650;9.916;2022-08-21T07:29:39;3.33;;;1.27;;
8133;SDS011;7113;53.650;9.916;2022-08-21T07:31:42;6.43;;;1.10;;
8133;SDS011;7113;53.650;9.916;2022-08-21T07:33:45;13.93;;;1.10;;
8133;SDS011;7113;53.650;9.916;2022-08-21T07:35:48;1.17;;;0.80;;
8133;SDS011;7113;53.650;9.916;2022-08-21T07:37:52;5.00;;;0.77;;
8133;SDS011;7113;53.650;9.916;2022-08-21T07:39:55;2.80;;;1.00;;
8133;SDS011;7113;53.650;9.916;2022-08-21T07:42:00;7.90;;;1.23;;
8133;SDS011;7113;53.650;9.916;2022-08-21T07:44:03;2.20;;;1.00;;
8133;SDS011;7113;53.650;9.916;2022-08-21T07:46:06;1.63;;;0.70;;
8133;SDS011;7113;53.650;9.916;2022-08-21T07:48:11;1.03;;;0.80;;
8133;SDS011;7113;53.650;9.916;2022-08-21T07:50:14;1.33;;;1.23;;
8133;SDS011;7113;53.650;9.916;2022-08-21T07:52:17;6.20;;;1.27;;
8133;SDS011;7113;53.650;9.916;2022-08-21T07:54:20;3.73;;;1.33;;
8133;SDS011;7113;53.650;9.916;2022-08-21T07:56:23;4.13;;;0.90;;
8133;SDS011;7113;53.650;9.916;2022-08-21T07:58:29;13.73;;;1.60;;
8133;SDS011;7113;53.650;9.916;2022-08-21T08:00:33;1.40;;;1.10;;
8133;SDS011;7113;53.650;9.916;2022-08-21T08:02:36;4.10;;;1.20;;
8133;SDS011;7113;53.650;9.916;2022-08-21T08:04:39;2.23;;;0.97;;
8133;SDS011;7113;53.650;9.916;2022-08-21T08:06:42;2.13;;;1.00;;
8133;SDS011;7113;53.650;9.916;2022-08-21T08:08:45;4.23;;;1.23;;
8133;SDS011;7113;53.650;9.916;2022-08-21T08:10:48;4.03;;;0.90;;
8133;SDS011;7113;53.650;9.916;2022-08-21T08:12:53;6.27;;;1.37;;
8133;SDS011;7113;53.650;9.916;2022-08-21T08:15:00;5.80;;;1.20;;
8133;SDS011;7113;53.650;9.916;2022-08-21T08:17:03;4.83;;;0.80;;
8133;SDS011;7113;53.650;9.916;2022-08-21T08:19:06;1.50;;;0.80;;
8133;SDS011;7113;53.650;9.916;2022-08-21T08:21:10;4.70;;;1.90;;
8133;SDS011;7113;53.650;9.916;2022-08-21T08:23:13;7.10;;;1.10;;
8133;SDS011;7113;53.650;9.916;2022-08-21T08:25:17;4.00;;;1.00;;
8133;SDS011;7113;53.650;9.916;2022-08-21T08:27:21;8.40;;;1.00;;
8133;SDS011;7113;53.650;9.916;2022-08-21T08:29:24;2.70;;;0.90;;
8133;SDS011;7113;53.650;9.916;2022-08-21T08:31:30;3.70;;;0.83;;
8133;SDS011;7113;53.650;9.916;2022-08-21T08:33:33;6.30;;;1.00;;
8133;SDS011;7113;53.650;9.916;2022-08-21T08:35:36;7.03;;;0.90;;
8133;SDS011;7113;53.650;9.916;2022-08-21T08:37:40;5.83;;;1.03;;
8133;SDS011;7113;53.650;9.916;2022-08-21T08:39:45;4.10;;;0.97;;
8133;SDS011;7113;53.650;9.916;2022-08-21T08:41:57;10.87;;;1.70;;
8133;SDS011;7113;53.650;9.916;2022-08-21T08:44:03;2.17;;;0.70;;
8133;SDS011;7113;53.650;9.916;2022-08-21T08:46:10;4.33;;;1.53;;
8133;SDS011;7113;53.650;9.916;2022-08-21T08:48:21;3.43;;;1.37;;
8133;SDS011;7113;53.650;9.916;2022-08-21T08:50:33;4.70;;;1.40;;
